Time;durP1;ratioP1;P1;durP2;ratioP2;P2;SDS_P1;SDS_P2;PMS_P1;PMS_P2;Temp;Humidity;BMP_temperature;BMP_pressure;BME280_temperature;BME280_humidity;BME280_pressure;Samples;Min_cycle;Max_cycle;Signal;HPM_P1;HPM_P2
2023/01/25 00:01:20;;;;;;;20.45;10.85;;;;;;;;;;6343489;22;20556;-62
2023/01/25 00:03:46;;;;;;;23.08;10.95;;;;;;;;;;6343240;22;20177;-62
2023/01/25 00:06:12;;;;;;;26.35;12.02;;;;;;;;;;6342971;22;20169;-62
2023/01/25 00:08:38;;;;;;;20.83;10.73;;;;;;;;;;6342445;22;20215;-60
2023/01/25 00:11:04;;;;;;;22.63;10.52;;;;;;;;;;6343006;22;20295;-62
2023/01/25 00:13:30;;;;;;;24.10;11.20;;;;;;;;;;6343178;22;20142;-62
2023/01/25 00:16:05;;;;;;;21.73;10.48;;;;;;;;;;6342392;22;20217;-62
2023/01/25 00:18:31;;;;;;;22.98;11.30;;;;;;;;;;6343750;22;20150;-62
2023/01/25 00:20:57;;;;;;;21.55;10.77;;;;;;;;;;6342497;22;20142;-62
2023/01/25 00:23:23;;;;;;;23.50;10.52;;;;;;;;;;6342271;22;20185;-59
2023/01/25 00:25:55;;;;;;;21.88;10.90;;;;;;;;;;6342167;22;20533;-61
2023/01/25 00:28:21;;;;;;;21.90;11.27;;;;;;;;;;6343880;22;20127;-62
2023/01/25 00:30:47;;;;;;;23.73;10.65;;;;;;;;;;6344564;22;20165;-62
2023/01/25 00:33:16;;;;;;;19.35;10.63;;;;;;;;;;6345109;22;20427;-63
2023/01/25 00:35:44;;;;;;;24.58;11.82;;;;;;;;;;6345302;22;20146;-62
2023/01/25 00:38:24;;;;;;;24.00;10.63;;;;;;;;;;6343214;22;20614;-62
2023/01/25 00:40:50;;;;;;;25.35;12.00;;;;;;;;;;6345369;22;20130;-62
2023/01/25 00:43:16;;;;;;;22.60;10.77;;;;;;;;;;6344408;22;20611;-61
2023/01/25 00:45:42;;;;;;;22.30;11.32;;;;;;;;;;6342354;22;20561;-61
2023/01/25 00:48:08;;;;;;;20.75;10.35;;;;;;;;;;6342086;22;20139;-62
2023/01/25 00:50:36;;;;;;;25.23;11.70;;;;;;;;;;6341928;22;20144;-62
2023/01/25 00:53:02;;;;;;;22.35;11.38;;;;;;;;;;6342091;22;20153;-61
2023/01/25 00:55:28;;;;;;;23.48;11.07;;;;;;;;;;6342507;22;20147;-61
2023/01/25 00:57:53;;;;;;;21.60;10.98;;;;;;;;;;6341957;22;20156;-62
2023/01/25 01:00:19;;;;;;;22.35;10.18;;;;;;;;;;6341769;22;20149;-62
2023/01/25 01:02:45;;;;;;;22.52;10.60;;;;;;;;;;6342128;22;20221;-62
2023/01/25 01:05:11;;;;;;;26.00;11.50;;;;;;;;;;6341835;22;20546;-62
2023/01/25 01:07:37;;;;;;;22.98;11.07;;;;;;;;;;6342174;22;20157;-62
2023/01/25 01:10:04;;;;;;;25.10;11.30;;;;;;;;;;6342111;22;20143;-61
2023/01/25 01:12:30;;;;;;;24.38;11.63;;;;;;;;;;6342126;22;20154;-61
2023/01/25 01:14:56;;;;;;;26.45;12.00;;;;;;;;;;6342151;22;20142;-61
2023/01/25 01:17:22;;;;;;;27.67;12.10;;;;;;;;;;6342106;22;20178;-62
2023/01/25 01:19:48;;;;;;;25.02;12.10;;;;;;;;;;6341949;22;20183;-61
2023/01/25 01:22:14;;;;;;;25.60;11.85;;;;;;;;;;6342402;22;20166;-62
2023/01/25 01:24:41;;;;;;;24.05;11.75;;;;;;;;;;6341966;22;20165;-62
2023/01/25 01:27:07;;;;;;;26.42;10.95;;;;;;;;;;6341631;22;20584;-62
2023/01/25 01:29:33;;;;;;;26.73;11.43;;;;;;;;;;6341937;22;20139;-62
2023/01/25 01:31:59;;;;;;;25.65;11.00;;;;;;;;;;6341838;22;20204;-62
2023/01/25 01:34:25;;;;;;;27.08;12.43;;;;;;;;;;6341973;22;20177;-62
2023/01/25 01:36:51;;;;;;;26.08;11.38;;;;;;;;;;6341782;22;20157;-62
2023/01/25 01:39:17;;;;;;;24.77;10.63;;;;;;;;;;6341544;22;20194;-62
2023/01/25 01:41:43;;;;;;;22.95;10.68;;;;;;;;;;6342022;22;20142;-61
2023/01/25 01:44:19;;;;;;;23.90;11.20;;;;;;;;;;6341534;22;20664;-59
2023/01/25 01:46:48;;;;;;;24.05;11.07;;;;;;;;;;6341718;22;20126;-61
2023/01/25 01:49:23;;;;;;;25.75;10.05;;;;;;;;;;6342046;22;20138;-62
2023/01/25 01:51:55;;;;;;;21.92;10.15;;;;;;;;;;6341507;22;20483;-62
2023/01/25 01:54:24;;;;;;;23.42;9.82;;;;;;;;;;6341938;22;20156;-62
2023/01/25 01:57:10;;;;;;;22.42;9.73;;;;;;;;;;6341788;22;20207;-62
2023/01/25 01:59:43;;;;;;;22.75;9.52;;;;;;;;;;6341888;22;20142;-62
2023/01/25 02:02:09;;;;;;;23.58;10.73;;;;;;;;;;6341764;22;20176;-62
2023/01/25 02:04:35;;;;;;;24.88;11.32;;;;;;;;;;6341711;22;20182;-62
2023/01/25 02:07:12;;;;;;;24.17;9.45;;;;;;;;;;6341273;22;20245;-61
2023/01/25 02:09:39;;;;;;;21.95;10.15;;;;;;;;;;6341749;22;20188;-62
2023/01/25 02:12:06;;;;;;;23.98;10.25;;;;;;;;;;6341624;22;20146;-62
2023/01/25 02:14:32;;;;;;;26.42;11.27;;;;;;;;;;6341655;22;20432;-62
2023/01/25 02:16:58;;;;;;;26.45;10.50;;;;;;;;;;6341470;22;20170;-62
2023/01/25 02:19:29;;;;;;;23.35;9.88;;;;;;;;;;6341691;22;20225;-61
2023/01/25 02:21:56;;;;;;;21.50;10.15;;;;;;;;;;6341167;22;20553;-62
2023/01/25 02:24:29;;;;;;;25.35;11.45;;;;;;;;;;6341495;22;20452;-61
2023/01/25 02:26:55;;;;;;;22.15;10.65;;;;;;;;;;6341023;22;20157;-62
2023/01/25 02:29:23;;;;;;;24.00;10.98;;;;;;;;;;6341588;22;20162;-61
2023/01/25 02:31:51;;;;;;;26.15;11.85;;;;;;;;;;6341532;22;20138;-62
2023/01/25 02:34:17;;;;;;;23.75;10.07;;;;;;;;;;6341616;22;20153;-62
2023/01/25 02:36:43;;;;;;;26.10;11.85;;;;;;;;;;6341890;22;20142;-62
2023/01/25 02:39:14;;;;;;;23.98;10.75;;;;;;;;;;6341462;22;20205;-62
2023/01/25 02:41:41;;;;;;;23.33;10.32;;;;;;;;;;6341687;22;20188;-61
2023/01/25 02:44:18;;;;;;;25.27;10.85;;;;;;;;;;6342216;22;20177;-62
2023/01/25 02:46:44;;;;;;;23.88;10.95;;;;;;;;;;6341423;22;20579;-61
2023/01/25 02:49:10;;;;;;;27.90;11.20;;;;;;;;;;6342190;22;20142;-62
2023/01/25 02:51:38;;;;;;;26.33;11.02;;;;;;;;;;6341729;22;20434;-62
2023/01/25 02:54:05;;;;;;;24.00;10.63;;;;;;;;;;6341993;22;20556;-61
2023/01/25 02:56:31;;;;;;;27.52;11.13;;;;;;;;;;6342029;22;20206;-62
2023/01/25 02:58:57;;;;;;;29.30;12.20;;;;;;;;;;6341341;22;20423;-61
2023/01/25 03:01:23;;;;;;;23.08;11.07;;;;;;;;;;6341740;22;20157;-62
2023/01/25 03:03:49;;;;;;;24.73;11.27;;;;;;;;;;6341651;22;20170;-61
2023/01/25 03:06:15;;;;;;;27.77;13.02;;;;;;;;;;6341690;22;20138;-61
2023/01/25 03:08:41;;;;;;;27.10;11.43;;;;;;;;;;6341152;22;20613;-62
2023/01/25 03:11:07;;;;;;;25.90;11.93;;;;;;;;;;6341237;22;20181;-62
2023/01/25 03:13:34;;;;;;;28.25;11.85;;;;;;;;;;6341524;22;20174;-62
2023/01/25 03:16:02;;;;;;;23.33;11.05;;;;;;;;;;6341261;22;20166;-62
2023/01/25 03:18:28;;;;;;;27.27;11.65;;;;;;;;;;6341084;22;20146;-62
2023/01/25 03:20:54;;;;;;;25.83;11.05;;;;;;;;;;6341319;22;20394;-61
2023/01/25 03:23:20;;;;;;;24.23;11.30;;;;;;;;;;6340761;22;20182;-62
2023/01/25 03:25:46;;;;;;;29.63;11.75;;;;;;;;;;6341174;22;20151;-62
2023/01/25 03:28:12;;;;;;;26.55;11.27;;;;;;;;;;6340659;22;20138;-62
2023/01/25 03:30:38;;;;;;;24.27;10.10;;;;;;;;;;6341231;22;20138;-62
2023/01/25 03:33:04;;;;;;;24.88;10.65;;;;;;;;;;6341043;22;20146;-60
2023/01/25 03:35:30;;;;;;;23.17;10.77;;;;;;;;;;6341180;22;20154;-62
2023/01/25 03:37:56;;;;;;;23.95;10.30;;;;;;;;;;6341323;22;20165;-62
2023/01/25 03:40:22;;;;;;;26.73;10.68;;;;;;;;;;6341028;22;20557;-62
2023/01/25 03:42:48;;;;;;;21.77;10.10;;;;;;;;;;6341014;22;20575;-60
2023/01/25 03:45:14;;;;;;;22.52;10.10;;;;;;;;;;6341903;22;20169;-63
2023/01/25 03:47:41;;;;;;;25.83;10.63;;;;;;;;;;6341212;22;20153;-62
2023/01/25 03:50:07;;;;;;;25.73;10.95;;;;;;;;;;6341095;22;20146;-62
2023/01/25 03:52:37;;;;;;;25.38;11.02;;;;;;;;;;6340921;22;20431;-62
2023/01/25 03:55:04;;;;;;;21.00;9.95;;;;;;;;;;6340732;22;20498;-62
2023/01/25 03:57:30;;;;;;;18.50;9.35;;;;;;;;;;6340532;22;20177;-61
2023/01/25 03:59:56;;;;;;;22.70;9.25;;;;;;;;;;6341027;22;20203;-62
2023/01/25 04:02:22;;;;;;;24.55;11.00;;;;;;;;;;6340678;22;20204;-62
2023/01/25 04:04:47;;;;;;;25.73;10.70;;;;;;;;;;6342349;22;20208;-62
2023/01/25 04:07:13;;;;;;;28.45;11.95;;;;;;;;;;6342373;22;20157;-62
2023/01/25 04:09:39;;;;;;;23.65;9.95;;;;;;;;;;6342484;22;20176;-61
2023/01/25 04:12:05;;;;;;;24.88;10.57;;;;;;;;;;6343008;22;20154;-60
2023/01/25 04:14:31;;;;;;;26.50;11.23;;;;;;;;;;6342886;22;20589;-61
2023/01/25 04:16:57;;;;;;;22.35;10.68;;;;;;;;;;6342289;22;20177;-62
2023/01/25 04:19:23;;;;;;;22.88;10.38;;;;;;;;;;6343202;22;20207;-61
2023/01/25 04:21:49;;;;;;;23.70;10.70;;;;;;;;;;6342478;22;20154;-62
2023/01/25 04:24:15;;;;;;;24.60;10.50;;;;;;;;;;6342487;22;20573;-62
2023/01/25 04:26:41;;;;;;;25.67;10.85;;;;;;;;;;6342680;22;20576;-62
2023/01/25 04:29:07;;;;;;;21.88;9.77;;;;;;;;;;6342511;22;20635;-62
2023/01/25 04:31:33;;;;;;;25.27;10.60;;;;;;;;;;6342644;22;20565;-62
2023/01/25 04:33:59;;;;;;;24.52;10.82;;;;;;;;;;6342440;22;20568;-62
2023/01/25 04:36:25;;;;;;;22.08;10.23;;;;;;;;;;6342505;22;20214;-63
2023/01/25 04:38:51;;;;;;;24.88;10.63;;;;;;;;;;6341097;22;20150;-63
2023/01/25 04:41:17;;;;;;;27.90;10.55;;;;;;;;;;6342705;22;20613;-61
2023/01/25 04:43:43;;;;;;;20.20;9.45;;;;;;;;;;6342361;22;20193;-62
2023/01/25 04:46:09;;;;;;;23.23;9.63;;;;;;;;;;6342576;22;20142;-62
2023/01/25 04:48:35;;;;;;;20.95;9.40;;;;;;;;;;6341975;22;20221;-62
2023/01/25 04:51:01;;;;;;;23.25;9.40;;;;;;;;;;6342137;22;20153;-63
2023/01/25 04:53:27;;;;;;;21.05;9.25;;;;;;;;;;6342147;22;20138;-63
2023/01/25 04:55:53;;;;;;;18.70;8.70;;;;;;;;;;6342338;22;20146;-62
2023/01/25 04:58:19;;;;;;;23.25;10.25;;;;;;;;;;6342249;22;20560;-61
2023/01/25 05:00:45;;;;;;;20.40;9.52;;;;;;;;;;6342102;22;20534;-61
2023/01/25 05:03:11;;;;;;;21.95;9.82;;;;;;;;;;6342228;22;20527;-63
2023/01/25 05:05:37;;;;;;;23.20;10.63;;;;;;;;;;6342611;22;20153;-61
2023/01/25 05:08:03;;;;;;;20.50;10.00;;;;;;;;;;6342287;22;20146;-59
2023/01/25 05:10:29;;;;;;;24.58;10.43;;;;;;;;;;6342593;22;20199;-62
2023/01/25 05:12:55;;;;;;;23.10;9.90;;;;;;;;;;6342031;22;20153;-62
2023/01/25 05:15:21;;;;;;;25.48;10.65;;;;;;;;;;6342453;22;20185;-61
2023/01/25 05:17:46;;;;;;;22.27;9.65;;;;;;;;;;6342210;22;20170;-60
2023/01/25 05:20:12;;;;;;;20.70;9.73;;;;;;;;;;6342328;22;20143;-62
2023/01/25 05:22:40;;;;;;;20.90;9.55;;;;;;;;;;6341748;22;20165;-61
2023/01/25 05:26:59;;;;;;;20.70;9.18;;;;;;;;;;6342197;22;20434;-61
2023/01/25 05:27:52;;;;;;;21.67;8.55;;;;;;;;;;6342618;22;20606;-60
2023/01/25 05:30:18;;;;;;;23.90;9.43;;;;;;;;;;6342258;22;20135;-61
2023/01/25 05:32:44;;;;;;;23.50;8.93;;;;;;;;;;6342385;22;20142;-63
2023/01/25 05:35:10;;;;;;;21.02;10.50;;;;;;;;;;6341962;22;20431;-62
2023/01/25 05:37:36;;;;;;;18.48;8.98;;;;;;;;;;6342204;22;20173;-62
2023/01/25 05:40:02;;;;;;;22.33;10.43;;;;;;;;;;6342594;22;20618;-63
2023/01/25 05:42:28;;;;;;;22.35;9.93;;;;;;;;;;6342331;22;20150;-61
2023/01/25 05:44:54;;;;;;;20.73;9.68;;;;;;;;;;6342576;22;20169;-63
2023/01/25 05:47:20;;;;;;;19.35;9.95;;;;;;;;;;6341957;22;20142;-63
2023/01/25 05:49:46;;;;;;;21.52;9.18;;;;;;;;;;6341764;22;20545;-63
2023/01/25 05:52:16;;;;;;;24.27;10.27;;;;;;;;;;6341880;22;20440;-63
2023/01/25 05:54:42;;;;;;;22.95;10.40;;;;;;;;;;6344386;22;20146;-63
2023/01/25 05:57:08;;;;;;;21.67;9.60;;;;;;;;;;6365450;22;20565;-63
2023/01/25 05:59:34;;;;;;;24.63;10.10;;;;;;;;;;6363710;22;20144;-63
2023/01/25 06:02:00;;;;;;;21.20;9.48;;;;;;;;;;6345093;22;20536;-62
2023/01/25 06:04:26;;;;;;;25.48;10.68;;;;;;;;;;6342208;22;20244;-61
2023/01/25 06:06:52;;;;;;;23.92;9.90;;;;;;;;;;6342003;22;20232;-63
2023/01/25 06:09:17;;;;;;;23.38;10.13;;;;;;;;;;6341748;22;20221;-62
2023/01/25 06:11:44;;;;;;;20.08;9.75;;;;;;;;;;6341672;22;20138;-62
2023/01/25 06:14:10;;;;;;;22.83;9.40;;;;;;;;;;6341688;22;20143;-61
2023/01/25 06:16:36;;;;;;;20.13;9.02;;;;;;;;;;6341702;22;20146;-62
2023/01/25 06:19:04;;;;;;;20.25;9.10;;;;;;;;;;6342059;22;20150;-62
2023/01/25 06:21:30;;;;;;;23.30;9.07;;;;;;;;;;6342390;22;20441;-61
2023/01/25 06:23:56;;;;;;;21.35;9.57;;;;;;;;;;6342537;22;20154;-62
2023/01/25 06:26:22;;;;;;;20.20;8.90;;;;;;;;;;6342105;22;20150;-61
2023/01/25 06:28:48;;;;;;;21.98;10.38;;;;;;;;;;6342391;22;20229;-62
2023/01/25 06:31:15;;;;;;;21.15;9.00;;;;;;;;;;6342166;22;20142;-62
2023/01/25 06:33:42;;;;;;;23.13;10.00;;;;;;;;;;6342790;22;20146;-62
2023/01/25 06:36:12;;;;;;;19.25;8.32;;;;;;;;;;6341354;22;20143;-62
2023/01/25 06:38:38;;;;;;;22.08;9.70;;;;;;;;;;6341181;22;20146;-61
2023/01/25 06:41:06;;;;;;;20.92;9.35;;;;;;;;;;6341325;22;20233;-62
2023/01/25 06:43:33;;;;;;;24.63;10.32;;;;;;;;;;6341426;22;20515;-62
2023/01/25 06:46:03;;;;;;;26.00;9.85;;;;;;;;;;6341277;22;20142;-61
2023/01/25 06:48:30;;;;;;;25.77;10.35;;;;;;;;;;6341533;22;20142;-63
2023/01/25 06:50:56;;;;;;;24.73;11.10;;;;;;;;;;6341501;22;20142;-63
2023/01/25 06:53:24;;;;;;;25.15;10.43;;;;;;;;;;6341000;22;20537;-63
2023/01/25 06:55:56;;;;;;;24.92;10.20;;;;;;;;;;6339725;22;20602;-61
2023/01/25 06:58:22;;;;;;;28.38;10.20;;;;;;;;;;6341386;22;20243;-61
2023/01/25 07:00:48;;;;;;;23.23;9.48;;;;;;;;;;6340940;22;20255;-62
2023/01/25 07:03:14;;;;;;;27.70;10.38;;;;;;;;;;6341129;22;20166;-63
2023/01/25 07:05:39;;;;;;;26.15;10.38;;;;;;;;;;6340642;22;20150;-63
2023/01/25 07:08:05;;;;;;;22.55;9.88;;;;;;;;;;6340807;22;20177;-62
2023/01/25 07:10:31;;;;;;;21.75;9.52;;;;;;;;;;6341220;22;20214;-62
2023/01/25 07:12:57;;;;;;;25.83;10.02;;;;;;;;;;6341299;22;20538;-59
2023/01/25 07:15:23;;;;;;;21.83;9.30;;;;;;;;;;6341148;22;20142;-64
2023/01/25 07:17:49;;;;;;;22.73;10.85;;;;;;;;;;6341148;22;20142;-63
2023/01/25 07:20:15;;;;;;;24.55;9.43;;;;;;;;;;6340726;22;20411;-62
2023/01/25 07:22:41;;;;;;;25.88;10.50;;;;;;;;;;6340656;22;20247;-63
2023/01/25 07:25:07;;;;;;;20.98;9.13;;;;;;;;;;6340902;22;20181;-63
2023/01/25 07:27:34;;;;;;;20.58;9.48;;;;;;;;;;6341167;22;20213;-62
2023/01/25 07:30:00;;;;;;;24.15;9.98;;;;;;;;;;6341351;22;20138;-63
2023/01/25 07:32:26;;;;;;;21.55;9.63;;;;;;;;;;6341536;22;20149;-61
2023/01/25 09:12:25;;;;;;;21.13;9.77;;;;;;;;;;6341960;22;20153;-60
2023/01/25 09:15:10;;;;;;;20.20;9.27;;;;;;;;;;6341889;22;20150;-62
2023/01/25 09:17:54;;;;;;;16.63;8.73;;;;;;;;;;6343383;22;20153;-62
2023/01/25 09:20:39;;;;;;;18.98;8.43;;;;;;;;;;6343187;22;20191;-62
2023/01/25 09:23:23;;;;;;;17.95;8.85;;;;;;;;;;6343119;22;20203;-62
2023/01/25 09:26:08;;;;;;;17.10;8.30;;;;;;;;;;6342470;22;20146;-63
2023/01/25 09:28:52;;;;;;;19.00;9.18;;;;;;;;;;6342253;22;20142;-63
2023/01/25 09:31:30;;;;;;;20.90;9.75;;;;;;;;;;6342296;22;20292;-63
2023/01/25 09:33:57;;;;;;;20.58;9.30;;;;;;;;;;6341913;22;20149;-61
2023/01/25 09:36:23;;;;;;;17.70;8.93;;;;;;;;;;6341817;22;20138;-62
2023/01/25 09:38:49;;;;;;;20.15;9.23;;;;;;;;;;6341956;22;20231;-61
2023/01/25 09:41:27;;;;;;;18.77;9.73;;;;;;;;;;6342355;22;20158;-63
2023/01/25 09:44:13;;;;;;;18.20;8.13;;;;;;;;;;6343442;22;20170;-62
2023/01/25 09:46:59;;;;;;;17.02;8.40;;;;;;;;;;6342047;22;20203;-63
2023/01/25 09:49:44;;;;;;;19.70;8.52;;;;;;;;;;6341564;22;20153;-61
2023/01/25 09:52:20;;;;;;;18.27;8.68;;;;;;;;;;6341989;22;20146;-61
2023/01/25 09:54:46;;;;;;;20.65;9.65;;;;;;;;;;6341871;22;20134;-62
2023/01/25 09:57:15;;;;;;;17.85;9.15;;;;;;;;;;6341454;22;20142;-63
2023/01/25 09:59:43;;;;;;;17.63;9.27;;;;;;;;;;6341970;22;20161;-61
2023/01/25 10:02:18;;;;;;;18.40;9.13;;;;;;;;;;6341737;22;20211;-63
2023/01/25 10:04:45;;;;;;;21.83;10.18;;;;;;;;;;6341262;22;20535;-62
2023/01/25 10:07:17;;;;;;;20.15;9.88;;;;;;;;;;6341366;22;20134;-59
2023/01/25 10:09:49;;;;;;;16.58;9.45;;;;;;;;;;6342085;22;20245;-63
2023/01/25 10:12:22;;;;;;;22.48;10.32;;;;;;;;;;6341558;22;20142;-63
2023/01/25 10:14:48;;;;;;;21.30;10.35;;;;;;;;;;6341737;22;20156;-63
2023/01/25 10:17:31;;;;;;;20.50;10.15;;;;;;;;;;6341499;22;20208;-63
2023/01/25 10:20:12;;;;;;;21.05;10.82;;;;;;;;;;6341895;22;20263;-63
2023/01/25 10:22:52;;;;;;;23.38;11.02;;;;;;;;;;6341301;22;20168;-62
2023/01/25 10:25:22;;;;;;;21.33;10.30;;;;;;;;;;6341897;22;20150;-63
2023/01/25 10:28:03;;;;;;;21.50;10.57;;;;;;;;;;6341882;22;20150;-62
2023/01/25 10:30:30;;;;;;;21.08;10.77;;;;;;;;;;6342045;22;20126;-62
2023/01/25 10:33:01;;;;;;;20.20;9.98;;;;;;;;;;6341599;22;20161;-62
2023/01/25 10:35:29;;;;;;;20.63;10.80;;;;;;;;;;6341361;22;20149;-62
2023/01/25 10:37:58;;;;;;;17.23;9.30;;;;;;;;;;6341157;22;20504;-62
2023/01/25 10:40:26;;;;;;;19.13;10.57;;;;;;;;;;6341549;22;20138;-62
2023/01/25 10:42:58;;;;;;;19.08;10.43;;;;;;;;;;6341599;22;20146;-62
2023/01/25 10:45:23;;;;;;;18.23;10.38;;;;;;;;;;6341007;22;20134;-61
2023/01/25 10:47:51;;;;;;;18.65;10.05;;;;;;;;;;6341207;22;20195;-64
2023/01/25 10:50:35;;;;;;;20.60;10.40;;;;;;;;;;6341627;22;20138;-61
2023/01/25 10:53:01;;;;;;;17.30;9.70;;;;;;;;;;6342059;22;20181;-62
2023/01/25 10:55:27;;;;;;;19.75;10.77;;;;;;;;;;6341607;22;20234;-63
2023/01/25 10:57:56;;;;;;;19.95;10.82;;;;;;;;;;6341364;22;20142;-64
2023/01/25 11:00:25;;;;;;;18.63;9.38;;;;;;;;;;6341561;22;20161;-63
2023/01/25 11:02:52;;;;;;;17.33;10.10;;;;;;;;;;6341243;22;20180;-62
2023/01/25 11:05:18;;;;;;;16.48;10.25;;;;;;;;;;6341316;22;20217;-63
2023/01/25 11:07:47;;;;;;;17.42;9.50;;;;;;;;;;6341179;22;20586;-63
2023/01/25 11:10:30;;;;;;;20.73;9.63;;;;;;;;;;6341377;22;20152;-63
2023/01/25 11:13:18;;;;;;;17.25;9.82;;;;;;;;;;6344005;22;20193;-62
2023/01/25 11:15:44;;;;;;;16.67;9.68;;;;;;;;;;6350212;22;20130;-63
2023/01/25 11:18:22;;;;;;;17.05;10.05;;;;;;;;;;6353612;22;20268;-62
2023/01/25 11:21:03;;;;;;;16.27;9.50;;;;;;;;;;6349563;22;20146;-61
2023/01/25 11:23:31;;;;;;;18.55;10.18;;;;;;;;;;6344484;22;20177;-63
2023/01/25 11:26:10;;;;;;;18.67;9.98;;;;;;;;;;6345188;22;20146;-63
2023/01/25 11:28:36;;;;;;;18.27;10.70;;;;;;;;;;6344638;22;20122;-62
2023/01/25 11:31:04;;;;;;;18.30;10.13;;;;;;;;;;6344385;22;20161;-62
2023/01/25 11:33:31;;;;;;;19.55;11.25;;;;;;;;;;6344514;22;20576;-62
2023/01/25 11:36:00;;;;;;;18.80;10.10;;;;;;;;;;6344657;22;20145;-61
2023/01/25 11:38:26;;;;;;;18.08;10.40;;;;;;;;;;6344702;22;20153;-62
2023/01/25 11:41:00;;;;;;;19.10;10.13;;;;;;;;;;6344257;22;20146;-63
2023/01/25 11:43:29;;;;;;;17.80;10.27;;;;;;;;;;6344535;22;20172;-60
2023/01/25 11:46:03;;;;;;;19.52;10.25;;;;;;;;;;6344594;22;20217;-62
2023/01/25 11:48:52;;;;;;;16.30;9.02;;;;;;;;;;6344229;22;20514;-62
2023/01/25 11:51:27;;;;;;;18.73;10.55;;;;;;;;;;6344532;22;20141;-63
2023/01/25 11:53:59;;;;;;;18.65;10.73;;;;;;;;;;6344624;22;20141;-61
2023/01/25 11:56:39;;;;;;;20.27;10.68;;;;;;;;;;6344676;22;20122;-62
2023/01/25 11:59:14;;;;;;;16.60;10.02;;;;;;;;;;6344577;22;20151;-61
2023/01/25 12:02:00;;;;;;;20.33;11.02;;;;;;;;;;6344663;22;20138;-63
2023/01/25 12:04:32;;;;;;;18.42;10.50;;;;;;;;;;6344358;22;20192;-63
2023/01/25 12:07:02;;;;;;;17.60;10.82;;;;;;;;;;6344546;22;20165;-63
2023/01/25 12:09:33;;;;;;;21.40;11.40;;;;;;;;;;6344471;22;20142;-63
2023/01/25 12:11:59;;;;;;;21.85;11.52;;;;;;;;;;6344550;22;20171;-63
2023/01/25 12:14:25;;;;;;;19.08;11.05;;;;;;;;;;6343988;22;20217;-63
2023/01/25 12:16:54;;;;;;;19.95;11.82;;;;;;;;;;6344265;22;20199;-63
2023/01/25 12:19:23;;;;;;;16.70;10.82;;;;;;;;;;6344098;22;20157;-61
2023/01/25 12:21:49;;;;;;;18.92;11.10;;;;;;;;;;6344187;22;20154;-62
2023/01/25 12:24:36;;;;;;;17.23;11.23;;;;;;;;;;6341896;22;20454;-62
2023/01/25 12:27:25;;;;;;;16.35;10.15;;;;;;;;;;6342851;22;20470;-62
2023/01/25 12:30:02;;;;;;;17.30;11.02;;;;;;;;;;6342899;22;20141;-63
2023/01/25 12:32:33;;;;;;;20.60;11.10;;;;;;;;;;6342873;22;20172;-63
2023/01/25 12:35:17;;;;;;;17.65;11.23;;;;;;;;;;6342688;22;20135;-63
2023/01/25 12:37:45;;;;;;;19.17;11.55;;;;;;;;;;6342049;22;20180;-63
2023/01/25 12:40:18;;;;;;;17.67;10.77;;;;;;;;;;6342322;22;20224;-63
2023/01/25 12:42:46;;;;;;;18.35;11.30;;;;;;;;;;6342548;22;20150;-63
2023/01/25 12:45:31;;;;;;;19.95;10.85;;;;;;;;;;6342293;22;20578;-62
2023/01/25 12:47:59;;;;;;;17.08;10.95;;;;;;;;;;6342417;22;20130;-62
2023/01/25 12:50:45;;;;;;;17.67;10.98;;;;;;;;;;6342601;22;20142;-62
2023/01/25 12:53:17;;;;;;;18.27;11.65;;;;;;;;;;6342143;22;20560;-62
2023/01/25 12:55:43;;;;;;;18.25;11.15;;;;;;;;;;6342132;22;20134;-63
2023/01/25 12:58:15;;;;;;;21.92;12.40;;;;;;;;;;6341719;22;20143;-63
2023/01/25 13:00:48;;;;;;;17.48;11.68;;;;;;;;;;6342205;22;20153;-61
2023/01/25 13:03:14;;;;;;;16.55;9.20;;;;;;;;;;6342734;22;20155;-61
2023/01/25 13:05:46;;;;;;;19.23;10.93;;;;;;;;;;6341744;22;20139;-60
2023/01/25 13:08:22;;;;;;;16.90;10.25;;;;;;;;;;6342028;22;20146;-59
2023/01/25 13:10:50;;;;;;;17.92;10.48;;;;;;;;;;6342835;22;20137;-61
2023/01/25 13:13:24;;;;;;;17.08;10.45;;;;;;;;;;6342822;22;20157;-62
2023/01/25 13:15:52;;;;;;;17.17;9.90;;;;;;;;;;6342635;22;20146;-62
2023/01/25 13:18:24;;;;;;;18.65;10.40;;;;;;;;;;6342406;22;20142;-61
2023/01/25 13:20:52;;;;;;;15.43;10.15;;;;;;;;;;6342392;22;20146;-60
2023/01/25 13:23:57;;;;;;;16.80;10.98;;;;;;;;;;6341736;22;20174;-60
2023/01/25 13:26:22;;;;;;;15.65;9.07;;;;;;;;;;6341496;22;20164;-61
2023/01/25 13:28:48;;;;;;;17.38;9.68;;;;;;;;;;6342003;22;20191;-60
2023/01/25 13:31:33;;;;;;;16.75;10.73;;;;;;;;;;6342331;22;20142;-61
2023/01/25 13:33:59;;;;;;;16.88;10.30;;;;;;;;;;6342144;22;20172;-62
2023/01/25 13:36:40;;;;;;;16.48;9.93;;;;;;;;;;6341845;22;20541;-62
2023/01/25 13:39:24;;;;;;;17.08;10.43;;;;;;;;;;6341737;22;20564;-60
2023/01/25 13:42:08;;;;;;;16.98;10.23;;;;;;;;;;6342032;22;20142;-60
2023/01/25 13:44:35;;;;;;;17.38;10.32;;;;;;;;;;6341654;22;20176;-61
2023/01/25 13:47:03;;;;;;;17.13;9.90;;;;;;;;;;6341946;22;20624;-61
2023/01/25 13:49:55;;;;;;;20.50;11.30;;;;;;;;;;6342310;22;20142;-63
2023/01/25 13:52:22;;;;;;;15.23;9.82;;;;;;;;;;6339442;22;20446;-62
2023/01/25 13:54:50;;;;;;;17.45;11.27;;;;;;;;;;6341644;22;20161;-63
2023/01/25 13:57:21;;;;;;;16.55;10.65;;;;;;;;;;6341610;22;20150;-63
2023/01/25 13:59:47;;;;;;;16.27;10.32;;;;;;;;;;6341762;22;20199;-62
2023/01/25 14:02:15;;;;;;;16.15;10.77;;;;;;;;;;6345273;22;20231;-62
2023/01/25 14:04:43;;;;;;;18.88;10.82;;;;;;;;;;6346916;22;20470;-61
2023/01/25 14:07:14;;;;;;;17.02;9.90;;;;;;;;;;6343237;22;20166;-62
2023/01/25 14:09:41;;;;;;;16.27;9.60;;;;;;;;;;6341737;22;20142;-62
2023/01/25 14:12:09;;;;;;;14.30;9.48;;;;;;;;;;6341768;22;20229;-62
2023/01/25 14:14:35;;;;;;;16.58;9.95;;;;;;;;;;6341890;22;20183;-61
2023/01/25 14:17:12;;;;;;;16.70;10.05;;;;;;;;;;6341666;22;20170;-62
2023/01/25 14:19:39;;;;;;;16.35;9.98;;;;;;;;;;6342171;22;20240;-62
2023/01/25 14:22:24;;;;;;;18.00;11.20;;;;;;;;;;6341919;22;20166;-62
2023/01/25 14:25:09;;;;;;;18.58;10.57;;;;;;;;;;6340647;22;20173;-63
2023/01/25 14:27:37;;;;;;;18.17;10.80;;;;;;;;;;6341403;22;20599;-60
2023/01/25 14:30:04;;;;;;;16.92;10.52;;;;;;;;;;6341662;22;20157;-61
2023/01/25 14:32:29;;;;;;;17.30;11.27;;;;;;;;;;6342296;22;20162;-61
2023/01/25 14:34:55;;;;;;;16.35;9.98;;;;;;;;;;6341542;22;20485;-63
2023/01/25 14:37:21;;;;;;;17.83;10.63;;;;;;;;;;6342071;22;20542;-62
2023/01/25 14:39:48;;;;;;;16.38;10.27;;;;;;;;;;6343135;22;20154;-62
2023/01/25 14:42:15;;;;;;;17.08;10.18;;;;;;;;;;6342482;22;20560;-62
2023/01/25 14:44:42;;;;;;;15.57;10.23;;;;;;;;;;6342065;22;20180;-61
2023/01/25 14:47:26;;;;;;;16.65;10.38;;;;;;;;;;6342077;22;20153;-62
2023/01/25 14:49:52;;;;;;;15.98;10.07;;;;;;;;;;6342413;22;20145;-62
2023/01/25 14:52:20;;;;;;;14.80;9.30;;;;;;;;;;6342551;22;20483;-61
2023/01/25 14:54:53;;;;;;;14.60;9.77;;;;;;;;;;6342353;22;20150;-62
2023/01/25 14:57:23;;;;;;;15.55;9.05;;;;;;;;;;6342018;22;20226;-62
2023/01/25 14:59:50;;;;;;;16.05;9.73;;;;;;;;;;6342087;22;20452;-61
2023/01/25 15:02:17;;;;;;;15.15;9.70;;;;;;;;;;6341480;22;20152;-62
2023/01/25 15:04:53;;;;;;;15.63;9.70;;;;;;;;;;6341069;22;20173;-62
2023/01/25 15:07:33;;;;;;;15.80;9.48;;;;;;;;;;6341247;22;20417;-62
2023/01/25 15:10:14;;;;;;;17.10;10.02;;;;;;;;;;6340871;22;20580;-61
2023/01/25 15:12:40;;;;;;;17.02;9.48;;;;;;;;;;6342519;22;20122;-63
2023/01/25 15:15:20;;;;;;;14.68;8.98;;;;;;;;;;6341611;22;20176;-63
2023/01/25 15:17:47;;;;;;;15.73;9.68;;;;;;;;;;6341349;22;20146;-61
2023/01/25 15:20:25;;;;;;;13.63;9.10;;;;;;;;;;6340704;22;20161;-62
2023/01/25 15:22:51;;;;;;;15.57;9.05;;;;;;;;;;6365890;22;20173;-63
2023/01/25 15:25:23;;;;;;;17.38;10.45;;;;;;;;;;6341073;22;20220;-63
2023/01/25 15:27:49;;;;;;;16.58;10.15;;;;;;;;;;6341155;22;20586;-62
2023/01/25 15:30:15;;;;;;;18.65;11.25;;;;;;;;;;6340974;22;20217;-62
2023/01/25 15:32:42;;;;;;;17.13;9.77;;;;;;;;;;6341244;22;20538;-62
2023/01/25 15:35:15;;;;;;;17.80;10.75;;;;;;;;;;6340619;22;20614;-62
2023/01/25 15:37:41;;;;;;;16.15;9.65;;;;;;;;;;6340247;22;20142;-62
2023/01/25 15:40:09;;;;;;;17.38;10.05;;;;;;;;;;6341236;22;20422;-62
2023/01/25 15:42:35;;;;;;;13.80;8.60;;;;;;;;;;6341015;22;20151;-61
2023/01/25 15:45:02;;;;;;;18.10;10.27;;;;;;;;;;6340624;22;20511;-62
2023/01/25 15:47:28;;;;;;;16.20;9.65;;;;;;;;;;6340835;22;20393;-63
2023/01/25 15:49:54;;;;;;;16.58;9.80;;;;;;;;;;6340675;22;20138;-63
2023/01/25 15:52:20;;;;;;;14.98;9.73;;;;;;;;;;6340696;22;20555;-63
2023/01/25 15:54:46;;;;;;;16.85;10.10;;;;;;;;;;6340916;22;20165;-63
2023/01/25 15:57:19;;;;;;;15.25;9.43;;;;;;;;;;6340627;22;20142;-63
2023/01/25 15:59:45;;;;;;;18.33;10.40;;;;;;;;;;6343006;22;20195;-63
2023/01/25 16:02:12;;;;;;;14.90;8.73;;;;;;;;;;6342445;22;20154;-63
2023/01/25 16:04:38;;;;;;;14.15;8.52;;;;;;;;;;6342688;22;20158;-60
2023/01/25 16:07:04;;;;;;;17.40;9.82;;;;;;;;;;6342483;22;20206;-60
2023/01/25 16:09:32;;;;;;;16.88;9.95;;;;;;;;;;6342676;22;20138;-62
2023/01/25 16:12:00;;;;;;;16.83;10.25;;;;;;;;;;6343290;22;20214;-61